createdAt,value
2018-09-19T00:01:59.052Z,16.50
2018-09-19T00:04:27.884Z,16.50
2018-09-19T00:06:56.204Z,16.50
2018-09-19T00:09:25.766Z,16.40
2018-09-19T00:11:54.507Z,16.40
2018-09-19T00:14:23.136Z,16.30
2018-09-19T00:16:51.512Z,16.30
2018-09-19T00:19:19.860Z,16.30
2018-09-19T00:21:48.202Z,16.20
2018-09-19T00:24:16.623Z,16.20
2018-09-19T00:26:44.918Z,16.10
2018-09-19T00:29:13.399Z,16.10
2018-09-19T00:31:41.713Z,16.10
2018-09-19T00:34:09.990Z,16.10
2018-09-19T00:36:38.540Z,16.10
2018-09-19T00:39:08.543Z,16.00
2018-09-19T00:41:37.057Z,16.00
2018-09-19T00:44:05.416Z,15.90
2018-09-19T00:46:33.735Z,15.90
2018-09-19T00:49:02.093Z,15.90
2018-09-19T00:51:30.403Z,15.80
2018-09-19T00:53:58.801Z,15.80
2018-09-19T00:56:27.144Z,15.70
2018-09-19T00:58:55.493Z,15.70
2018-09-19T01:01:24.182Z,15.60
2018-09-19T01:03:52.598Z,15.60
2018-09-19T01:06:20.908Z,15.50
2018-09-19T01:08:49.438Z,15.50
2018-09-19T01:11:17.796Z,15.40
2018-09-19T01:13:46.246Z,15.40
2018-09-19T01:16:14.574Z,15.40
2018-09-19T01:18:42.900Z,15.40
2018-09-19T01:21:11.224Z,15.30
2018-09-19T01:23:39.543Z,15.30
2018-09-19T01:26:07.888Z,15.30
2018-09-19T01:28:36.207Z,15.30
2018-09-19T01:31:04.570Z,15.30
2018-09-19T01:33:32.882Z,15.20
2018-09-19T01:36:01.339Z,15.20
2018-09-19T01:38:29.640Z,15.20
2018-09-19T01:40:57.948Z,15.20
2018-09-19T01:43:26.249Z,15.10
2018-09-19T01:45:54.576Z,15.10
2018-09-19T01:48:23.454Z,15.10
2018-09-19T01:50:51.779Z,15.10
2018-09-19T01:53:20.991Z,15.10
2018-09-19T01:55:49.312Z,15.10
2018-09-19T01:58:18.111Z,15.10
2018-09-19T02:00:46.404Z,15.10
2018-09-19T02:03:14.700Z,15.20
2018-09-19T02:05:42.987Z,15.20
2018-09-19T02:08:11.556Z,15.20
2018-09-19T02:10:39.932Z,15.30
2018-09-19T02:13:08.255Z,15.40
2018-09-19T02:15:36.597Z,15.40
2018-09-19T02:18:04.917Z,15.40
2018-09-19T02:20:33.295Z,15.40
2018-09-19T02:23:02.005Z,15.50
2018-09-19T02:25:31.276Z,15.50
2018-09-19T02:27:59.602Z,15.50
2018-09-19T02:30:27.874Z,15.50
2018-09-19T02:32:56.188Z,15.60
2018-09-19T02:35:24.509Z,15.60
2018-09-19T02:37:52.808Z,15.60
2018-09-19T02:40:21.155Z,15.60
2018-09-19T02:42:50.089Z,15.70
2018-09-19T02:45:18.386Z,15.70
2018-09-19T02:47:46.700Z,15.70
2018-09-19T02:50:14.969Z,15.80
2018-09-19T02:52:43.265Z,15.90
2018-09-19T02:55:12.195Z,16.10
2018-09-19T02:57:42.764Z,16.20
2018-09-19T03:00:11.115Z,16.40
2018-09-19T03:02:39.905Z,16.60
2018-09-19T03:05:08.728Z,16.80
2018-09-19T03:07:37.536Z,16.90
2018-09-19T03:10:06.006Z,16.90
2018-09-19T03:12:34.767Z,17.00
2018-09-19T03:15:03.288Z,17.00
2018-09-19T03:17:36.074Z,17.00
2018-09-19T03:20:04.346Z,17.10
2018-09-19T03:22:32.678Z,17.10
2018-09-19T03:25:01.114Z,17.00
2018-09-19T03:27:29.423Z,17.00
2018-09-19T03:29:58.286Z,17.00
2018-09-19T03:32:26.601Z,17.00
2018-09-19T03:34:54.863Z,17.00
2018-09-19T03:37:23.248Z,17.00
2018-09-19T03:39:52.069Z,16.90
2018-09-19T03:42:20.418Z,16.90
2018-09-19T03:44:48.729Z,16.90
2018-09-19T03:47:17.008Z,16.80
2018-09-19T03:49:45.723Z,16.80
2018-09-19T03:52:14.762Z,16.70
2018-09-19T03:54:43.117Z,16.70
2018-09-19T03:57:11.459Z,16.70
2018-09-19T03:59:39.764Z,16.60
2018-09-19T04:02:08.091Z,16.60
2018-09-19T04:04:36.402Z,16.60
2018-09-19T04:07:08.504Z,16.50
2018-09-19T04:09:37.460Z,16.40
2018-09-19T04:12:05.871Z,16.40
2018-09-19T04:14:34.148Z,16.30
2018-09-19T04:17:02.471Z,16.20
2018-09-19T04:19:30.951Z,16.20
2018-09-19T04:22:00.779Z,16.10
2018-09-19T04:24:29.670Z,16.20
2018-09-19T04:26:58.107Z,16.10
2018-09-19T04:29:26.465Z,16.10
2018-09-19T04:31:55.361Z,16.00
2018-09-19T04:34:24.361Z,16.00
2018-09-19T04:36:52.789Z,15.90
2018-09-19T04:39:21.155Z,15.90
2018-09-19T04:41:49.724Z,15.80
2018-09-19T04:44:18.070Z,15.80
2018-09-19T04:46:46.471Z,15.70
2018-09-19T04:49:15.547Z,15.60
2018-09-19T04:51:44.554Z,15.50
2018-09-19T04:54:13.516Z,15.40
2018-09-19T04:56:41.855Z,15.30
2018-09-19T04:59:10.499Z,15.20
2018-09-19T05:01:38.818Z,15.10
2018-09-19T05:04:07.191Z,15.10
2018-09-19T05:06:35.500Z,15.00
2018-09-19T05:09:05.043Z,15.00
2018-09-19T05:11:33.447Z,14.90
2018-09-19T05:14:02.121Z,14.90
2018-09-19T05:16:30.406Z,14.90
2018-09-19T05:18:58.731Z,14.80
2018-09-19T05:21:27.012Z,14.80
2018-09-19T05:23:55.354Z,14.80
2018-09-19T05:26:23.651Z,14.80
2018-09-19T05:28:51.981Z,14.80
2018-09-19T05:31:20.471Z,14.80
2018-09-19T05:33:48.959Z,14.80
2018-09-19T05:36:17.280Z,14.80
2018-09-19T05:38:45.675Z,14.80
2018-09-19T05:41:14.043Z,14.80
2018-09-19T05:43:42.445Z,14.90
2018-09-19T05:46:10.775Z,14.90
2018-09-19T05:48:39.644Z,14.90
2018-09-19T05:51:07.977Z,14.90
2018-09-19T05:53:36.361Z,15.00
2018-09-19T05:56:04.703Z,15.10
2018-09-19T05:58:33.036Z,15.20
2018-09-19T06:01:01.440Z,15.30
2018-09-19T06:03:29.729Z,15.60
2018-09-19T06:05:58.157Z,15.80
2018-09-19T06:08:26.520Z,16.10
2018-09-19T06:10:54.849Z,16.20
2018-09-19T06:13:23.167Z,16.20
2018-09-19T06:15:51.494Z,16.20
2018-09-19T06:18:19.850Z,16.20
2018-09-19T06:20:48.167Z,16.20
2018-09-19T06:23:16.489Z,16.30
2018-09-19T06:25:44.801Z,16.40
2018-09-19T06:28:13.129Z,16.50
2018-09-19T06:30:41.470Z,16.60
2018-09-19T06:33:09.918Z,16.60
2018-09-19T06:35:38.089Z,17.00
2018-09-19T06:38:06.419Z,17.40
2018-09-19T06:40:34.827Z,17.90
2018-09-19T06:43:03.103Z,18.40
2018-09-19T06:45:31.423Z,19.00
2018-09-19T06:47:59.791Z,19.50
2018-09-19T06:50:28.152Z,20.10
2018-09-19T06:52:57.307Z,20.60
2018-09-19T06:55:25.693Z,21.10
2018-09-19T06:57:54.007Z,21.70
2018-09-19T07:00:22.329Z,22.30
2018-09-19T07:02:50.614Z,22.70
2018-09-19T07:05:18.881Z,23.10
2018-09-19T07:07:47.213Z,23.30
2018-09-19T07:10:15.514Z,23.40
2018-09-19T07:12:43.840Z,23.30
2018-09-19T07:15:12.150Z,23.80
2018-09-19T07:17:40.444Z,24.00
2018-09-19T07:20:08.705Z,24.60
2018-09-19T07:22:37.003Z,24.70
2018-09-19T07:25:05.481Z,24.40
2018-09-19T07:27:33.740Z,24.40
2018-09-19T07:30:02.127Z,24.40
2018-09-19T07:32:30.460Z,24.10
2018-09-19T07:34:58.804Z,24.10
2018-09-19T07:37:27.157Z,23.90
2018-09-19T07:39:55.495Z,23.70
2018-09-19T07:42:23.823Z,23.50
2018-09-19T07:44:52.123Z,23.50
2018-09-19T07:47:20.445Z,23.20
2018-09-19T07:49:48.767Z,23.20
2018-09-19T07:52:17.105Z,23.10
2018-09-19T07:54:45.513Z,23.40
2018-09-19T07:57:13.793Z,23.50
2018-09-19T07:59:42.134Z,23.80
2018-09-19T08:02:10.498Z,24.00
2018-09-19T08:04:38.799Z,24.20
2018-09-19T08:07:07.194Z,24.20
2018-09-19T08:09:35.474Z,24.30
2018-09-19T08:12:03.779Z,24.30
2018-09-19T08:14:32.113Z,24.60
2018-09-19T08:17:00.456Z,24.80
2018-09-19T08:19:28.785Z,24.90
2018-09-19T08:21:57.189Z,25.30
2018-09-19T08:24:25.474Z,25.60
2018-09-19T08:26:53.793Z,25.90
2018-09-19T08:29:22.115Z,26.00
2018-09-19T08:31:50.427Z,26.30
2018-09-19T08:34:18.734Z,26.20
2018-09-19T08:36:47.053Z,25.80
2018-09-19T08:39:15.347Z,26.10
2018-09-19T08:41:43.692Z,25.80
2018-09-19T08:44:12.171Z,26.10
2018-09-19T08:46:40.491Z,26.10
2018-09-19T08:49:08.810Z,26.00
2018-09-19T08:51:37.158Z,26.10
2018-09-19T08:54:05.445Z,26.20
2018-09-19T08:56:33.740Z,26.70
2018-09-19T08:59:02.879Z,26.90
2018-09-19T09:01:31.190Z,27.10
2018-09-19T09:03:59.492Z,27.50
2018-09-19T09:06:27.767Z,27.40
2018-09-19T09:08:56.106Z,27.20
2018-09-19T09:11:24.437Z,26.90
2018-09-19T09:13:52.749Z,26.70
2018-09-19T09:16:21.080Z,27.40
2018-09-19T09:18:49.393Z,27.50
2018-09-19T09:21:17.710Z,27.70
2018-09-19T09:23:46.088Z,27.90
2018-09-19T09:26:14.433Z,28.00
2018-09-19T09:28:42.791Z,27.50
2018-09-19T09:31:11.184Z,27.80
2018-09-19T09:33:39.474Z,28.00
2018-09-19T09:36:07.792Z,28.60
2018-09-19T09:38:36.113Z,28.40
2018-09-19T09:41:04.461Z,28.40
2018-09-19T09:43:32.839Z,29.00
2018-09-19T09:46:01.160Z,29.00
2018-09-19T09:48:29.489Z,28.70
2018-09-19T09:50:57.809Z,28.50
2018-09-19T09:53:28.997Z,28.80
2018-09-19T09:55:57.712Z,29.00
2018-09-19T09:58:26.054Z,28.60
2018-09-19T10:00:54.354Z,28.50
2018-09-19T10:03:27.169Z,28.60
2018-09-19T10:05:55.484Z,28.80
2018-09-19T10:08:23.800Z,28.80
2018-09-19T10:10:52.151Z,28.70
2018-09-19T10:13:20.509Z,28.90
2018-09-19T10:15:48.842Z,29.20
2018-09-19T10:18:17.133Z,29.50
2018-09-19T10:20:45.445Z,29.70
2018-09-19T10:23:13.985Z,29.10
2018-09-19T10:25:42.321Z,29.10
2018-09-19T10:28:10.719Z,29.10
2018-09-19T10:30:39.180Z,29.10
2018-09-19T10:33:07.702Z,28.60
2018-09-19T10:35:36.042Z,29.10
2018-09-19T10:38:04.363Z,29.00
2018-09-19T10:40:32.698Z,29.00
2018-09-19T10:43:02.370Z,28.90
2018-09-19T10:45:30.733Z,29.00
2018-09-19T10:47:59.336Z,29.00
2018-09-19T10:50:27.677Z,29.00
2018-09-19T10:52:55.982Z,29.10
2018-09-19T10:55:24.332Z,29.30
2018-09-19T10:57:52.699Z,29.30
2018-09-19T11:00:21.010Z,29.60
2018-09-19T11:02:49.330Z,29.80
2018-09-19T11:05:17.678Z,29.60
2018-09-19T11:07:46.111Z,29.50
2018-09-19T11:10:14.445Z,29.50
2018-09-19T11:12:42.839Z,29.50
2018-09-19T11:15:11.152Z,29.50
2018-09-19T11:17:39.453Z,29.40
2018-09-19T11:20:11.593Z,29.70
2018-09-19T11:22:39.918Z,29.90
2018-09-19T11:25:08.308Z,30.20
2018-09-19T11:27:36.670Z,30.40
2018-09-19T11:30:07.491Z,30.20
2018-09-19T11:32:35.899Z,30.10
2018-09-19T11:35:04.256Z,30.00
2018-09-19T11:37:32.549Z,30.20
2018-09-19T11:40:00.856Z,30.50
2018-09-19T11:42:29.406Z,30.10
2018-09-19T11:44:57.687Z,30.20
2018-09-19T11:47:26.030Z,30.80
2018-09-19T11:49:54.340Z,30.50
2018-09-19T11:52:22.624Z,30.70
2018-09-19T11:54:50.917Z,29.90
2018-09-19T11:57:20.098Z,29.80
2018-09-19T11:59:48.412Z,29.90
2018-09-19T12:02:16.754Z,29.60
2018-09-19T12:04:45.793Z,30.00
2018-09-19T12:07:14.158Z,30.20
2018-09-19T12:09:42.421Z,30.30
2018-09-19T12:12:10.772Z,30.40
2018-09-19T12:14:39.076Z,30.70
2018-09-19T12:17:07.497Z,30.20
2018-09-19T12:19:35.847Z,30.70
2018-09-19T12:22:04.266Z,30.90
2018-09-19T12:24:32.538Z,30.40
2018-09-19T12:27:00.869Z,30.30
2018-09-19T12:29:29.200Z,30.30
2018-09-19T12:31:57.508Z,30.60
2018-09-19T12:34:25.848Z,30.50
2018-09-19T12:36:54.196Z,30.50
2018-09-19T12:39:22.519Z,30.40
2018-09-19T12:41:50.872Z,30.30
2018-09-19T12:44:19.430Z,29.70
2018-09-19T12:46:47.731Z,29.50
2018-09-19T12:49:16.216Z,29.60
2018-09-19T12:51:44.419Z,29.60
2018-09-19T12:54:12.760Z,29.50
2018-09-19T12:56:41.236Z,29.30
2018-09-19T12:59:09.614Z,29.30
2018-09-19T13:01:38.034Z,29.10
2018-09-19T13:04:06.370Z,28.90
2018-09-19T13:06:34.695Z,28.90
2018-09-19T13:09:03.117Z,28.90
2018-09-19T13:11:31.520Z,29.50
2018-09-19T13:13:59.847Z,29.80
2018-09-19T13:16:28.126Z,30.00
2018-09-19T13:18:56.439Z,30.10
2018-09-19T13:21:24.801Z,30.50
2018-09-19T13:23:53.081Z,30.60
2018-09-19T13:26:21.426Z,30.80
2018-09-19T13:28:50.945Z,31.00
2018-09-19T13:31:19.280Z,30.80
2018-09-19T13:33:47.610Z,30.60
2018-09-19T13:36:15.939Z,30.00
2018-09-19T13:38:44.242Z,30.20
2018-09-19T13:41:12.656Z,30.50
2018-09-19T13:43:40.948Z,30.40
2018-09-19T13:46:09.954Z,30.80
2018-09-19T13:48:39.675Z,31.20
2018-09-19T13:51:12.747Z,31.30
2018-09-19T13:53:41.147Z,31.60
2018-09-19T13:56:09.467Z,32.50
2018-09-19T13:58:37.849Z,32.60
2018-09-19T14:01:06.836Z,32.60
2018-09-19T14:03:35.383Z,32.30
2018-09-19T14:06:03.817Z,32.20
2018-09-19T14:08:32.333Z,32.10
2018-09-19T14:11:00.707Z,31.70
2018-09-19T14:13:29.010Z,31.70
2018-09-19T14:15:57.360Z,31.90
2018-09-19T14:18:25.677Z,32.00
2018-09-19T14:20:54.273Z,32.30
2018-09-19T14:23:22.862Z,32.40
2018-09-19T14:25:51.737Z,32.50
2018-09-19T14:28:20.114Z,32.30
2018-09-19T14:30:48.386Z,31.30
2018-09-19T14:33:16.718Z,31.10
2018-09-19T14:35:45.121Z,30.60
2018-09-19T14:38:13.850Z,30.70
2018-09-19T14:40:42.153Z,31.40
2018-09-19T14:43:10.466Z,31.60
2018-09-19T14:45:38.832Z,32.10
2018-09-19T14:48:07.126Z,32.30
2018-09-19T14:50:35.433Z,32.60
2018-09-19T14:53:03.745Z,33.00
2018-09-19T14:55:32.057Z,32.80
2018-09-19T14:58:00.387Z,32.80
2018-09-19T15:00:28.851Z,32.00
2018-09-19T15:02:57.125Z,32.00
2018-09-19T15:05:26.934Z,31.80
2018-09-19T15:07:55.295Z,31.90
2018-09-19T15:10:23.657Z,32.10
2018-09-19T15:12:51.966Z,32.50
2018-09-19T15:15:21.420Z,32.40
2018-09-19T15:17:49.758Z,32.00
2018-09-19T15:20:19.646Z,31.80
2018-09-19T15:22:47.971Z,31.80
2018-09-19T15:25:16.257Z,31.90
2018-09-19T15:27:44.696Z,31.70
2018-09-19T15:30:13.005Z,31.40
2018-09-19T15:32:41.319Z,31.40
2018-09-19T15:35:09.644Z,31.40
2018-09-19T15:37:38.107Z,31.20
2018-09-19T15:40:06.472Z,31.10
2018-09-19T15:42:34.865Z,30.70
2018-09-19T15:45:03.245Z,30.80
2018-09-19T15:47:32.030Z,30.60
2018-09-19T15:50:00.350Z,30.60
2018-09-19T15:52:28.688Z,30.70
2018-09-19T15:54:56.988Z,30.60
2018-09-19T15:57:25.282Z,30.40
2018-09-19T15:59:53.628Z,30.50
2018-09-19T16:04:59.304Z,30.30
2018-09-19T16:07:27.633Z,30.20
2018-09-19T16:09:56.054Z,29.90
2018-09-19T16:12:24.419Z,29.70
2018-09-19T16:14:52.760Z,29.60
2018-09-19T16:17:21.094Z,29.60
2018-09-19T16:19:49.416Z,29.60
2018-09-19T16:22:17.716Z,29.70
2018-09-19T16:24:46.100Z,29.30
2018-09-19T16:27:14.437Z,29.20
2018-09-19T16:29:42.775Z,28.90
2018-09-19T16:32:11.200Z,29.00
2018-09-19T16:34:39.572Z,28.90
2018-09-19T16:37:07.976Z,28.90
2018-09-19T16:39:36.296Z,28.80
2018-09-19T16:42:04.695Z,28.90
2018-09-19T16:44:33.076Z,28.80
2018-09-19T16:47:01.455Z,28.70
2018-09-19T16:49:29.812Z,28.60
2018-09-19T16:51:58.127Z,28.30
2018-09-19T16:54:26.471Z,28.10
2018-09-19T16:56:54.865Z,27.80
2018-09-19T16:59:23.224Z,27.70
2018-09-19T17:01:51.758Z,27.50
2018-09-19T17:04:20.040Z,27.40
2018-09-19T17:06:48.395Z,27.20
2018-09-19T17:09:16.768Z,27.00
2018-09-19T17:11:45.290Z,26.90
2018-09-19T17:14:13.669Z,26.70
2018-09-19T17:16:42.022Z,26.60
2018-09-19T17:19:10.410Z,26.50
2018-09-19T17:21:38.701Z,26.30
2018-09-19T17:24:07.174Z,26.20
2018-09-19T17:26:35.522Z,26.10
2018-09-19T17:29:03.919Z,26.00
2018-09-19T17:31:32.319Z,25.90
2018-09-19T17:34:00.663Z,25.90
2018-09-19T17:36:29.098Z,25.80
2018-09-19T17:38:57.536Z,25.70
2018-09-19T17:41:26.093Z,25.60
2018-09-19T17:43:54.447Z,25.50
2018-09-19T17:46:22.783Z,25.40
2018-09-19T17:48:51.157Z,25.40
2018-09-19T17:51:19.463Z,25.30
2018-09-19T17:53:47.795Z,25.30
2018-09-19T17:56:16.144Z,25.20
2018-09-19T17:58:44.532Z,25.20
2018-09-19T18:01:12.953Z,25.10
2018-09-19T18:03:41.372Z,25.10
2018-09-19T18:06:09.735Z,25.00
2018-09-19T18:08:38.064Z,24.90
2018-09-19T18:11:06.714Z,24.90
2018-09-19T18:13:35.085Z,24.80
2018-09-19T18:16:03.424Z,24.70
2018-09-19T18:18:31.782Z,24.70
2018-09-19T18:21:00.183Z,24.60
2018-09-19T18:23:28.602Z,24.60
2018-09-19T18:25:56.963Z,24.50
2018-09-19T18:28:25.346Z,24.50
2018-09-19T18:30:53.725Z,24.40
2018-09-19T18:33:22.103Z,24.40
2018-09-19T18:35:50.507Z,24.30
2018-09-19T18:38:19.003Z,24.20
2018-09-19T18:40:47.336Z,24.30
2018-09-19T18:43:15.710Z,24.20
2018-09-19T18:45:44.164Z,24.20
2018-09-19T18:48:12.483Z,24.10
2018-09-19T18:50:40.799Z,24.10
2018-09-19T18:53:09.291Z,24.00
2018-09-19T18:55:37.665Z,23.90
2018-09-19T18:58:06.043Z,23.90
2018-09-19T19:00:34.405Z,23.90
2018-09-19T19:03:02.806Z,23.80
2018-09-19T19:05:31.275Z,23.80
2018-09-19T19:07:59.627Z,23.70
2018-09-19T19:10:28.016Z,23.70
2018-09-19T19:12:56.332Z,23.60
2018-09-19T19:15:24.640Z,23.60
2018-09-19T19:17:52.991Z,23.50
2018-09-19T19:20:21.322Z,23.40
2018-09-19T19:22:49.674Z,23.30
2018-09-19T19:25:18.016Z,23.30
2018-09-19T19:27:46.340Z,23.20
2018-09-19T19:30:14.734Z,23.10
2018-09-19T19:32:43.078Z,23.00
2018-09-19T19:35:11.478Z,23.00
2018-09-19T19:37:39.876Z,23.00
2018-09-19T19:40:08.214Z,22.90
2018-09-19T19:42:36.602Z,22.90
2018-09-19T19:45:05.008Z,22.90
2018-09-19T19:47:33.569Z,22.80
2018-09-19T19:50:01.855Z,22.80
2018-09-19T19:52:30.179Z,22.80
2018-09-19T19:54:58.523Z,22.70
2018-09-19T19:57:26.919Z,22.70
2018-09-19T19:59:55.223Z,22.70
2018-09-19T20:02:23.545Z,22.60
2018-09-19T20:04:51.886Z,22.60
2018-09-19T20:07:23.202Z,22.50
2018-09-19T20:09:51.549Z,22.50
2018-09-19T20:12:20.223Z,22.40
2018-09-19T20:14:48.585Z,22.40
2018-09-19T20:17:16.919Z,22.30
2018-09-19T20:19:45.208Z,22.30
2018-09-19T20:22:13.628Z,22.20
2018-09-19T20:24:41.990Z,22.10
2018-09-19T20:27:10.507Z,22.00
2018-09-19T20:29:38.932Z,22.00
2018-09-19T20:32:07.314Z,21.90
2018-09-19T20:34:35.627Z,21.80
2018-09-19T20:37:03.968Z,21.80
2018-09-19T20:39:32.268Z,21.70
2018-09-19T20:42:00.590Z,21.60
2018-09-19T20:44:28.984Z,21.50
2018-09-19T20:46:57.396Z,21.50
2018-09-19T20:49:25.706Z,21.40
2018-09-19T20:51:54.012Z,21.30
2018-09-19T20:54:22.337Z,21.30
2018-09-19T20:56:52.178Z,21.20
2018-09-19T20:59:20.522Z,21.10
2018-09-19T21:01:48.864Z,21.10
2018-09-19T21:04:17.246Z,21.10
2018-09-19T21:06:45.974Z,21.00
2018-09-19T21:09:15.902Z,21.00
2018-09-19T21:11:44.208Z,20.90
2018-09-19T21:14:12.480Z,20.90
2018-09-19T21:16:40.767Z,20.80
2018-09-19T21:19:09.122Z,20.70
2018-09-19T21:21:37.522Z,20.70
2018-09-19T21:24:05.791Z,20.60
2018-09-19T21:26:34.489Z,20.60
2018-09-19T21:29:02.819Z,20.50
2018-09-19T21:31:32.427Z,20.50
2018-09-19T21:34:00.752Z,20.50
2018-09-19T21:36:29.048Z,20.50
2018-09-19T21:38:57.331Z,20.50
2018-09-19T21:41:25.627Z,20.40
2018-09-19T21:43:53.955Z,20.40
2018-09-19T21:46:22.306Z,20.40
2018-09-19T21:48:50.781Z,20.40
2018-09-19T21:51:19.325Z,20.30
2018-09-19T21:53:47.664Z,20.30
2018-09-19T21:56:15.972Z,20.20
2018-09-19T21:58:44.259Z,20.10
2018-09-19T22:01:12.664Z,20.00
2018-09-19T22:03:41.666Z,20.00
2018-09-19T22:06:10.101Z,19.90
2018-09-19T22:08:38.643Z,19.80
2018-09-19T22:11:07.023Z,19.70
2018-09-19T22:13:35.330Z,19.70
2018-09-19T22:16:03.713Z,19.70
2018-09-19T22:18:32.093Z,19.70
2018-09-19T22:21:00.439Z,19.70
2018-09-19T22:23:28.740Z,19.70
2018-09-19T22:25:57.070Z,19.70
2018-09-19T22:28:25.424Z,19.70
2018-09-19T22:30:53.755Z,19.60
2018-09-19T22:33:22.989Z,19.60
2018-09-19T22:35:51.286Z,19.60
2018-09-19T22:38:19.622Z,19.60
2018-09-19T22:40:48.066Z,19.50
2018-09-19T22:43:16.374Z,19.40
2018-09-19T22:45:46.679Z,19.30
2018-09-19T22:48:14.994Z,19.30
2018-09-19T22:50:43.274Z,19.20
2018-09-19T22:53:11.643Z,19.20
2018-09-19T22:55:39.937Z,19.20
2018-09-19T22:58:08.223Z,19.20
2018-09-19T23:00:36.552Z,19.10
2018-09-19T23:03:04.879Z,19.10
2018-09-19T23:05:33.208Z,19.20
2018-09-19T23:08:01.589Z,19.20
2018-09-19T23:10:29.929Z,19.30
2018-09-19T23:12:58.277Z,19.30
2018-09-19T23:15:26.671Z,19.40
2018-09-19T23:17:55.011Z,19.40
2018-09-19T23:20:23.305Z,19.40
2018-09-19T23:22:54.134Z,19.50
2018-09-19T23:25:22.532Z,19.50
2018-09-19T23:27:50.873Z,19.50
2018-09-19T23:30:19.231Z,19.50
2018-09-19T23:32:47.545Z,19.60
2018-09-19T23:35:15.925Z,19.60
2018-09-19T23:37:44.230Z,19.60
2018-09-19T23:40:12.655Z,19.50
2018-09-19T23:42:40.999Z,19.60
2018-09-19T23:45:09.313Z,19.50
2018-09-19T23:47:37.597Z,19.50
2018-09-19T23:50:05.915Z,19.40
2018-09-19T23:52:34.192Z,19.40
2018-09-19T23:55:02.524Z,19.40
2018-09-19T23:57:30.951Z,19.40
2018-09-19T23:59:59.230Z,19.30
